Observations for GROTTAGLIE CIV AFB, Italy (LIBG)

LIBG 091850Z 35003KT CAVOK 09/08 Q1007  
LIBG 091750Z 13003KT CAVOK 10/09 Q1007  
LIBG 091650Z 11003KT CAVOK 12/08 Q1008  
LIBG 091550Z 22003KT 190V250 CAVOK 15/09 Q1008  
LIBG 091450Z 19006KT CAVOK 16/06 Q1009  
LIBG 091350Z 19005KT CAVOK 16/05 Q1009  
LIBG 091250Z 21005KT CAVOK 16/04 Q1010  
LIBG 091150Z 24006KT CAVOK 14/02 Q1011  
LIBG 091050Z 25006KT 210V290 CAVOK 14/00 Q1012  
LIBG 090950Z 26005KT 220V330 CAVOK 14/03 Q1013  
LIBG 090850Z 26005KT 230V310 CAVOK 12/05 Q1014  
LIBG 090750Z 30005KT 260V340 CAVOK 10/06 Q1014  
LIBG 090700Z 00000KT CAVOK 07/05 Q1014